Time;durP1;ratioP1;P1;durP2;ratioP2;P2;SDS_P1;SDS_P2;PMS_P1;PMS_P2;Temp;Humidity;BMP_temperature;BMP_pressure;BME280_temperature;BME280_humidity;BME280_pressure;Samples;Min_cycle;Max_cycle;Signal;HPM_P1;HPM_P2
2022/04/11 00:02:08;;;;;;;0.00;0.00;;;1.90;99.90;;;;;;5030606;28;20543;-67
2022/04/11 00:04:34;;;;;;;0.00;0.00;;;2.00;99.90;;;;;;5023408;28;20048;-68
2022/04/11 00:07:00;;;;;;;0.00;0.00;;;2.00;99.90;;;;;;5026224;28;20053;-68
2022/04/11 00:09:25;;;;;;;0.00;0.00;;;2.10;99.90;;;;;;5026201;28;20526;-66
2022/04/11 00:11:52;;;;;;;0.00;0.00;;;2.10;99.90;;;;;;5024361;28;20056;-66
2022/04/11 00:14:17;;;;;;;0.00;0.00;;;2.00;99.90;;;;;;5024070;28;20045;-68
2022/04/11 00:16:43;;;;;;;0.00;0.00;;;1.90;99.90;;;;;;5025280;28;20073;-65
2022/04/11 00:19:09;;;;;;;0.00;0.00;;;1.90;99.90;;;;;;5025692;28;20037;-66
2022/04/11 00:21:35;;;;;;;0.00;0.00;;;1.90;99.90;;;;;;5026042;28;20049;-65
2022/04/11 00:24:00;;;;;;;0.00;0.00;;;1.80;99.90;;;;;;5025124;28;20053;-65
2022/04/11 00:26:26;;;;;;;0.00;0.00;;;1.80;99.90;;;;;;5025184;28;20042;-66
2022/04/11 00:28:53;;;;;;;0.00;0.00;;;1.80;99.90;;;;;;5025077;28;20049;-65
2022/04/11 00:31:19;;;;;;;0.00;0.00;;;1.80;99.90;;;;;;5025152;28;20492;-66
2022/04/11 00:33:45;;;;;;;0.00;0.00;;;1.80;99.90;;;;;;5025024;28;20042;-62
2022/04/11 00:36:10;;;;;;;0.00;0.00;;;1.70;99.90;;;;;;5025521;28;20044;-66
2022/04/11 00:38:36;;;;;;;0.00;0.00;;;1.70;99.90;;;;;;5024939;28;20072;-66
2022/04/11 00:41:02;;;;;;;0.00;0.00;;;1.60;99.90;;;;;;5024035;28;20045;-67
2022/04/11 00:43:34;;;;;;;0.00;0.00;;;1.50;99.90;;;;;;5025183;28;20045;-66
2022/04/11 00:46:00;;;;;;;0.00;0.00;;;1.50;99.90;;;;;;5023912;28;20164;-65
2022/04/11 00:48:26;;;;;;;0.00;0.00;;;1.40;99.90;;;;;;5024808;28;20021;-66
2022/04/11 00:50:56;;;;;;;0.00;0.00;;;1.40;99.90;;;;;;5024465;28;20049;-65
2022/04/11 00:53:23;;;;;;;0.00;0.00;;;1.40;99.90;;;;;;5025433;28;20124;-65
2022/04/11 00:55:50;;;;;;;0.00;0.00;;;1.40;99.90;;;;;;5023458;28;20041;-68
2022/04/11 00:58:16;;;;;;;0.00;0.00;;;1.50;99.90;;;;;;5025230;28;20195;-66
2022/04/11 01:00:42;;;;;;;0.00;0.00;;;1.50;99.90;;;;;;5025169;28;20112;-66
2022/04/11 01:03:08;;;;;;;0.00;0.00;;;1.60;99.90;;;;;;5033677;28;20144;-66
2022/04/11 01:05:34;;;;;;;0.00;0.00;;;1.60;99.90;;;;;;5024362;28;20045;-65
2022/04/11 01:08:05;;;;;;;0.00;0.00;;;1.70;99.90;;;;;;5047196;22;20061;-65
2022/04/11 01:10:31;;;;;;;0.00;0.00;;;1.70;99.90;;;;;;5044912;28;20049;-66
2022/04/11 01:12:57;;;;;;;0.00;0.00;;;2.70;99.90;;;;;;5035593;28;20060;-65
2022/04/11 01:15:23;;;;;;;0.00;0.00;;;1.70;99.90;;;;;;5025019;28;20068;-66
2022/04/11 01:17:48;;;;;;;0.00;0.00;;;1.70;99.90;;;;;;5024234;28;20107;-65
2022/04/11 01:20:17;;;;;;;0.00;0.00;;;1.70;99.90;;;;;;5024919;28;20045;-66
2022/04/11 01:22:43;;;;;;;0.00;0.00;;;1.70;99.90;;;;;;5022845;28;20046;-66
2022/04/11 01:25:13;;;;;;;0.00;0.00;;;1.70;99.90;;;;;;5024746;28;20071;-66
2022/04/11 01:27:40;;;;;;;0.00;0.00;;;1.70;99.90;;;;;;5023783;28;20104;-66
2022/04/11 01:30:08;;;;;;;0.00;0.00;;;1.70;99.90;;;;;;5024336;28;20042;-66
2022/04/11 01:32:35;;;;;;;0.00;0.00;;;1.70;99.90;;;;;;5024838;28;20042;-66
2022/04/11 01:35:01;;;;;;;0.00;0.00;;;1.60;99.90;;;;;;5024483;28;20065;-65
2022/04/11 01:37:27;;;;;;;0.00;0.00;;;1.50;99.90;;;;;;5024014;28;20124;-66
2022/04/11 01:39:53;;;;;;;0.00;0.00;;;1.40;99.90;;;;;;5024156;28;20412;-66
2022/04/11 01:42:18;;;;;;;0.00;0.00;;;1.40;99.90;;;;;;5023824;28;20053;-65
2022/04/11 01:44:44;;;;;;;0.00;0.00;;;2.40;99.90;;;;;;5024047;28;20669;-66
2022/04/11 01:47:10;;;;;;;0.00;0.00;;;1.40;99.90;;;;;;5023396;28;20033;-66
2022/04/11 01:49:35;;;;;;;0.00;0.00;;;1.30;99.90;;;;;;5024047;28;20059;-66
2022/04/11 01:52:01;;;;;;;0.00;0.00;;;1.30;99.90;;;;;;5024325;28;20038;-65
2022/04/11 01:54:27;;;;;;;0.00;0.00;;;1.30;99.90;;;;;;5023426;28;20040;-66
2022/04/11 01:56:52;;;;;;;0.00;0.00;;;1.20;99.90;;;;;;5022965;28;20462;-66
2022/04/11 01:59:18;;;;;;;0.00;0.00;;;1.30;99.90;;;;;;5024016;28;20113;-68
2022/04/11 02:01:43;;;;;;;0.00;0.00;;;1.30;99.90;;;;;;5030402;28;20080;-68
2022/04/11 02:04:09;;;;;;;0.00;0.00;;;1.30;99.90;;;;;;5027713;28;20044;-68
2022/04/11 02:06:36;;;;;;;0.00;0.00;;;1.30;99.90;;;;;;5023847;28;20069;-67
2022/04/11 02:09:02;;;;;;;0.00;0.00;;;1.30;99.90;;;;;;5023829;28;20045;-67
2022/04/11 02:11:28;;;;;;;0.00;0.00;;;1.30;99.90;;;;;;5022935;28;20486;-68
2022/04/11 02:13:53;;;;;;;0.00;0.00;;;1.30;99.90;;;;;;5023114;28;20037;-68
2022/04/11 02:16:19;;;;;;;0.00;0.00;;;1.40;99.90;;;;;;5024296;28;20041;-66
2022/04/11 02:18:45;;;;;;;0.00;0.00;;;1.70;99.90;;;;;;5022969;28;20110;-65
2022/04/11 02:21:10;;;;;;;0.00;0.00;;;1.30;99.90;;;;;;5023119;28;20037;-66
2022/04/11 02:23:36;;;;;;;0.00;0.00;;;1.30;99.90;;;;;;5023419;28;20073;-66
2022/04/11 02:26:02;;;;;;;0.00;0.00;;;1.30;99.90;;;;;;5022834;28;20042;-66
2022/04/11 02:28:28;;;;;;;0.00;0.00;;;1.40;99.90;;;;;;5023061;28;20037;-66
2022/04/11 02:30:53;;;;;;;0.00;0.00;;;1.40;99.90;;;;;;5022126;28;20136;-66
2022/04/11 02:33:19;;;;;;;0.00;0.00;;;1.30;99.90;;;;;;5023734;28;20323;-65
2022/04/11 02:35:45;;;;;;;0.00;0.00;;;1.40;99.90;;;;;;5021513;28;20037;-65
2022/04/11 02:38:11;;;;;;;0.00;0.00;;;1.40;99.90;;;;;;5022918;28;20045;-66
2022/04/11 02:40:36;;;;;;;0.00;0.00;;;1.30;99.90;;;;;;5022422;28;20048;-66
2022/04/11 02:43:02;;;;;;;0.00;0.00;;;1.30;99.90;;;;;;5023262;28;20488;-66
2022/04/11 02:45:28;;;;;;;0.32;0.20;;;1.20;99.90;;;;;;5038485;28;20033;-65
2022/04/11 02:47:53;;;;;;;0.00;0.00;;;1.20;99.90;;;;;;5021966;28;20171;-68
2022/04/11 02:50:19;;;;;;;0.00;0.00;;;1.10;99.90;;;;;;5023489;28;20061;-66
2022/04/11 02:52:45;;;;;;;0.00;0.00;;;1.10;99.90;;;;;;5022635;28;20034;-64
2022/04/11 02:55:11;;;;;;;0.00;0.00;;;1.10;99.90;;;;;;5022881;28;20564;-68
2022/04/11 02:57:38;;;;;;;0.00;0.00;;;1.10;99.90;;;;;;5021892;28;20045;-68
2022/04/11 03:00:06;;;;;;;0.00;0.00;;;1.10;99.90;;;;;;5023355;28;20041;-66
2022/04/11 03:02:32;;;;;;;0.00;0.00;;;1.10;99.90;;;;;;5034619;28;20052;-66
2022/04/11 03:04:58;;;;;;;0.00;0.00;;;1.10;99.90;;;;;;5022037;28;20124;-66
2022/04/11 03:07:23;;;;;;;0.00;0.00;;;1.10;99.90;;;;;;5022219;28;20549;-66
2022/04/11 03:09:49;;;;;;;0.00;0.00;;;1.10;99.90;;;;;;5022728;28;20045;-65
2022/04/11 03:12:15;;;;;;;0.00;0.00;;;1.10;99.90;;;;;;5020504;28;20040;-68
2022/04/11 03:14:40;;;;;;;0.00;0.00;;;1.20;99.90;;;;;;5021818;28;20124;-67
2022/04/11 03:17:06;;;;;;;0.00;0.00;;;1.10;99.90;;;;;;5022690;28;20045;-68
2022/04/11 03:19:32;;;;;;;0.00;0.00;;;1.10;99.90;;;;;;5021402;28;20045;-67
2022/04/11 03:21:58;;;;;;;0.00;0.00;;;1.10;99.90;;;;;;5021783;28;20495;-67
2022/04/11 03:24:24;;;;;;;0.00;0.00;;;1.10;99.90;;;;;;5022408;28;20526;-67
2022/04/11 03:26:49;;;;;;;0.00;0.00;;;1.10;99.90;;;;;;5021892;28;20045;-68
2022/04/11 03:29:15;;;;;;;0.00;0.00;;;1.20;99.90;;;;;;5037908;28;20051;-67
2022/04/11 03:31:41;;;;;;;0.00;0.00;;;1.20;99.90;;;;;;5021747;28;20415;-67
2022/04/11 03:34:06;;;;;;;0.00;0.00;;;1.20;99.90;;;;;;5022390;28;20045;-66
2022/04/11 03:36:32;;;;;;;0.00;0.00;;;1.20;99.90;;;;;;5022515;28;20050;-67
2022/04/11 03:38:57;;;;;;;0.00;0.00;;;1.20;99.90;;;;;;5021291;28;20059;-68
2022/04/11 03:41:23;;;;;;;0.00;0.00;;;1.20;99.90;;;;;;5021316;28;20404;-67
2022/04/11 03:43:49;;;;;;;0.00;0.00;;;1.20;99.90;;;;;;5021946;28;20475;-67
2022/04/11 03:46:14;;;;;;;0.00;0.00;;;1.20;99.90;;;;;;5022033;28;20071;-67
2022/04/11 03:48:40;;;;;;;0.00;0.00;;;1.20;99.90;;;;;;5021862;28;20118;-65
2022/04/11 03:51:07;;;;;;;0.00;0.00;;;1.20;99.90;;;;;;5022293;28;20162;-66
2022/04/11 03:53:32;;;;;;;0.00;0.00;;;1.30;99.90;;;;;;5022722;28;20049;-65
2022/04/11 03:55:58;;;;;;;0.00;0.00;;;1.30;99.90;;;;;;5021334;28;20037;-67
2022/04/11 03:58:23;;;;;;;0.00;0.00;;;1.30;99.90;;;;;;5021518;28;20060;-67
2022/04/11 04:00:49;;;;;;;0.00;0.00;;;1.40;99.90;;;;;;5024485;28;20104;-68
2022/04/11 04:03:14;;;;;;;0.00;0.00;;;1.40;99.90;;;;;;5025227;28;20099;-67
2022/04/11 04:05:44;;;;;;;0.00;0.00;;;1.50;99.90;;;;;;5021590;28;20037;-65
2022/04/11 04:08:11;;;;;;;0.00;0.00;;;1.60;99.90;;;;;;5004135;28;20057;-66
2022/04/11 04:10:37;;;;;;;0.00;0.00;;;1.60;99.90;;;;;;5036325;28;20057;-65
2022/04/11 04:13:03;;;;;;;0.00;0.00;;;1.70;99.90;;;;;;5022286;28;20041;-67
2022/04/11 04:15:30;;;;;;;0.00;0.00;;;2.10;99.90;;;;;;5021945;28;20503;-66
2022/04/11 04:17:56;;;;;;;0.00;0.00;;;1.70;99.90;;;;;;5020211;28;20046;-65
2022/04/11 04:20:24;;;;;;;0.00;0.00;;;1.80;99.90;;;;;;5021147;28;20147;-66
2022/04/11 04:22:50;;;;;;;0.00;0.00;;;1.80;99.90;;;;;;5021033;28;20071;-66
2022/04/11 04:25:15;;;;;;;0.00;0.00;;;1.90;99.90;;;;;;5021575;28;20049;-66
2022/04/11 04:27:41;;;;;;;0.00;0.00;;;1.90;99.90;;;;;;5020221;28;20038;-68
2022/04/11 04:30:07;;;;;;;0.00;0.00;;;1.90;99.90;;;;;;5022223;28;20048;-66
2022/04/11 04:32:33;;;;;;;0.00;0.00;;;2.00;99.90;;;;;;5021925;28;20611;-66
2022/04/11 04:34:59;;;;;;;0.00;0.00;;;2.00;99.90;;;;;;5021468;28;20049;-66
2022/04/11 04:37:25;;;;;;;0.00;0.00;;;1.90;99.90;;;;;;5021679;28;20147;-65
2022/04/11 04:39:51;;;;;;;0.00;0.00;;;1.90;99.90;;;;;;5020943;28;20055;-66
2022/04/11 04:42:21;;;;;;;0.00;0.00;;;2.00;99.90;;;;;;5021130;28;20085;-65
2022/04/11 04:44:46;;;;;;;0.00;0.00;;;2.10;99.90;;;;;;5021528;28;20459;-65
2022/04/11 04:47:12;;;;;;;0.00;0.00;;;2.10;99.90;;;;;;5021210;28;20049;-65
2022/04/11 04:49:37;;;;;;;0.00;0.00;;;2.10;99.90;;;;;;5021122;28;20045;-65
2022/04/11 04:52:04;;;;;;;0.00;0.00;;;2.20;99.90;;;;;;5023604;28;20072;-68
2022/04/11 04:54:30;;;;;;;0.00;0.00;;;2.20;99.90;;;;;;5025387;28;20042;-67
2022/04/11 04:56:55;;;;;;;0.00;0.00;;;2.30;99.90;;;;;;5023539;28;20184;-67
2022/04/11 04:59:21;;;;;;;0.00;0.00;;;2.30;99.90;;;;;;5025242;28;20049;-66
2022/04/11 05:01:46;;;;;;;0.00;0.00;;;2.30;99.90;;;;;;5031636;28;20041;-66
2022/04/11 05:04:12;;;;;;;0.00;0.00;;;2.30;99.90;;;;;;5029156;28;20514;-66
2022/04/11 05:06:38;;;;;;;0.00;0.00;;;2.30;99.90;;;;;;5024315;28;20048;-66
2022/04/11 05:09:03;;;;;;;0.00;0.00;;;2.40;99.90;;;;;;5024808;28;20045;-66
2022/04/11 05:11:29;;;;;;;0.00;0.00;;;2.40;99.90;;;;;;5024151;28;20120;-66
2022/04/11 05:13:54;;;;;;;0.00;0.00;;;2.50;99.90;;;;;;5023930;28;20346;-66
2022/04/11 05:16:20;;;;;;;0.00;0.00;;;2.50;99.90;;;;;;5025022;28;20075;-66
2022/04/11 05:18:46;;;;;;;0.00;0.00;;;2.50;99.90;;;;;;5024410;28;20041;-66
2022/04/11 05:21:12;;;;;;;0.00;0.00;;;2.60;99.90;;;;;;5024787;28;20061;-68
2022/04/11 05:23:38;;;;;;;0.00;0.00;;;2.70;99.90;;;;;;5022652;28;20060;-66
2022/04/11 05:26:06;;;;;;;0.00;0.00;;;2.60;99.90;;;;;;5023922;28;20080;-66
2022/04/11 05:28:33;;;;;;;0.00;0.00;;;2.60;99.90;;;;;;5023623;28;20120;-66
2022/04/11 05:30:59;;;;;;;0.00;0.00;;;2.60;99.90;;;;;;5023526;28;20041;-66
2022/04/11 05:33:25;;;;;;;0.00;0.00;;;2.60;99.90;;;;;;5024759;28;20257;-66
2022/04/11 05:35:51;;;;;;;0.00;0.00;;;2.60;99.90;;;;;;5023863;28;20037;-67
2022/04/11 05:38:16;;;;;;;0.00;0.00;;;2.60;99.90;;;;;;5024360;28;20050;-66
2022/04/11 05:40:43;;;;;;;0.00;0.00;;;2.60;99.90;;;;;;5022499;28;20492;-66
2022/04/11 05:43:09;;;;;;;0.00;0.00;;;2.70;99.90;;;;;;5024446;28;20531;-66
2022/04/11 05:45:37;;;;;;;0.00;0.00;;;2.80;99.90;;;;;;5024672;28;20052;-66
2022/04/11 05:48:03;;;;;;;0.00;0.00;;;2.80;99.90;;;;;;5024040;28;20036;-68
2022/04/11 05:50:28;;;;;;;0.00;0.00;;;2.90;99.90;;;;;;5024101;28;20053;-66
2022/04/11 05:52:54;;;;;;;0.00;0.00;;;3.00;99.90;;;;;;5023744;28;20126;-66
2022/04/11 05:55:19;;;;;;;0.00;0.00;;;3.00;99.90;;;;;;5023540;28;20045;-66
2022/04/11 05:57:45;;;;;;;0.00;0.00;;;3.00;99.90;;;;;;5022946;28;20404;-65
2022/04/11 06:00:11;;;;;;;0.00;0.00;;;3.10;99.90;;;;;;5022931;28;20041;-66
2022/04/11 06:02:37;;;;;;;0.00;0.00;;;3.20;99.90;;;;;;5034189;28;20048;-66
2022/04/11 06:05:02;;;;;;;0.00;0.00;;;3.30;99.90;;;;;;5024066;28;20045;-66
2022/04/11 06:07:32;;;;;;;1.48;0.82;;;3.30;99.90;;;;;;5023095;28;20057;-66
2022/04/11 06:09:59;;;;;;;0.00;0.00;;;3.40;99.90;;;;;;5022555;28;20054;-66
2022/04/11 06:12:25;;;;;;;0.00;0.00;;;3.50;99.90;;;;;;5023730;28;20412;-67
2022/04/11 06:14:55;;;;;;;0.00;0.00;;;3.50;99.90;;;;;;5021641;28;20045;-66
2022/04/11 06:17:23;;;;;;;0.00;0.00;;;3.60;99.90;;;;;;5023815;28;20483;-66
2022/04/11 06:19:53;;;;;;;0.00;0.00;;;3.60;99.90;;;;;;5023149;28;20057;-65
2022/04/11 06:22:19;;;;;;;0.00;0.00;;;4.20;99.90;;;;;;5022775;28;20041;-66
2022/04/11 06:24:48;;;;;;;0.00;0.00;;;3.80;99.90;;;;;;5023343;28;20048;-62
2022/04/11 06:27:15;;;;;;;0.00;0.00;;;3.80;99.90;;;;;;5022481;28;20046;-66
2022/04/11 06:29:41;;;;;;;0.00;0.00;;;3.80;99.90;;;;;;5037997;28;20056;-68
2022/04/11 06:32:08;;;;;;;0.00;0.00;;;3.90;99.90;;;;;;5023314;28;20042;-66
2022/04/11 06:34:35;;;;;;;0.00;0.00;;;3.90;99.90;;;;;;5023562;28;20060;-65
2022/04/11 06:37:00;;;;;;;0.00;0.00;;;4.30;99.90;;;;;;5023034;28;20622;-65
2022/04/11 06:39:27;;;;;;;0.00;0.00;;;3.90;99.90;;;;;;5022908;28;20089;-67
2022/04/11 06:41:52;;;;;;;0.00;0.00;;;3.90;99.90;;;;;;5021005;28;20063;-66
2022/04/11 06:44:18;;;;;;;0.00;0.00;;;5.30;99.90;;;;;;5023290;28;20054;-67
2022/04/11 06:46:43;;;;;;;0.00;0.00;;;4.00;99.90;;;;;;5033401;28;20041;-67
2022/04/11 06:49:09;;;;;;;0.00;0.00;;;4.10;99.90;;;;;;5052557;28;20045;-67
2022/04/11 06:51:34;;;;;;;0.00;0.00;;;4.10;99.90;;;;;;5033993;28;20383;-62
2022/04/11 06:54:00;;;;;;;0.00;0.00;;;4.20;99.90;;;;;;5051914;28;20048;-68
2022/04/11 06:56:26;;;;;;;0.00;0.00;;;4.20;99.90;;;;;;5044228;28;20140;-66
2022/04/11 06:58:51;;;;;;;0.00;0.00;;;4.30;99.90;;;;;;5042195;28;20045;-66
2022/04/11 07:01:17;;;;;;;0.00;0.00;;;4.40;99.90;;;;;;5036749;28;20046;-67
2022/04/11 07:03:43;;;;;;;0.00;0.00;;;4.80;99.90;;;;;;5030627;28;20052;-65
2022/04/11 07:06:10;;;;;;;0.00;0.00;;;4.50;99.90;;;;;;5021932;28;20037;-66
2022/04/11 07:08:36;;;;;;;0.00;0.00;;;4.60;99.90;;;;;;5022317;28;20068;-65
2022/04/11 07:11:02;;;;;;;0.00;0.00;;;4.60;99.90;;;;;;5022025;28;20042;-68
2022/04/11 07:13:28;;;;;;;0.00;0.00;;;4.70;99.90;;;;;;5022006;28;20381;-67
2022/04/11 07:15:53;;;;;;;0.00;0.00;;;4.70;99.90;;;;;;5020608;28;20094;-68
2022/04/11 07:18:19;;;;;;;0.00;0.00;;;4.70;99.90;;;;;;5022505;28;20383;-66
2022/04/11 07:20:45;;;;;;;0.00;0.00;;;4.80;99.90;;;;;;5021626;28;20099;-62
2022/04/11 07:23:11;;;;;;;0.00;0.00;;;4.80;99.90;;;;;;5021928;28;20049;-69
2022/04/11 07:25:38;;;;;;;0.00;0.00;;;4.90;99.90;;;;;;5021332;28;20042;-66
2022/04/11 07:28:05;;;;;;;0.00;0.00;;;4.90;99.90;;;;;;5022522;28;20575;-66
2022/04/11 07:30:31;;;;;;;0.00;0.00;;;4.90;99.90;;;;;;5021943;28;20447;-66
2022/04/11 07:32:57;;;;;;;0.00;0.00;;;5.00;99.90;;;;;;5021827;28;20479;-67
2022/04/11 07:35:23;;;;;;;0.00;0.00;;;5.10;99.90;;;;;;5049791;28;20041;-66
2022/04/11 07:37:49;;;;;;;0.00;0.00;;;5.20;99.90;;;;;;5052106;28;20033;-66
2022/04/11 07:40:14;;;;;;;0.00;0.00;;;5.20;99.90;;;;;;5050595;28;20088;-66
2022/04/11 07:42:40;;;;;;;0.00;0.00;;;5.30;99.90;;;;;;5050647;28;20830;-66
2022/04/11 07:45:06;;;;;;;0.00;0.00;;;5.40;99.90;;;;;;5051496;28;20039;-66
2022/04/11 07:47:32;;;;;;;0.00;0.00;;;5.50;99.90;;;;;;5049814;28;20408;-66
2022/04/11 07:49:57;;;;;;;0.00;0.00;;;5.60;99.90;;;;;;5050575;28;20053;-66
2022/04/11 07:52:23;;;;;;;0.00;0.00;;;5.70;99.90;;;;;;5058851;28;20479;-66
2022/04/11 07:54:49;;;;;;;0.00;0.00;;;5.80;99.90;;;;;;5060958;28;20045;-66
2022/04/11 07:57:14;;;;;;;0.00;0.00;;;6.20;99.90;;;;;;5060279;28;20428;-66
2022/04/11 07:59:40;;;;;;;0.00;0.00;;;6.10;99.90;;;;;;5061308;28;20048;-65
2022/04/11 08:02:06;;;;;;;0.00;0.00;;;6.20;99.90;;;;;;5039479;28;20095;-66
2022/04/11 08:04:32;;;;;;;0.00;0.00;;;6.30;99.90;;;;;;5023423;28;20049;-66
2022/04/11 08:06:59;;;;;;;0.00;0.00;;;6.40;99.90;;;;;;5020890;28;20056;-66
2022/04/11 08:09:25;;;;;;;0.00;0.00;;;6.60;99.90;;;;;;5021655;28;20064;-66
2022/04/11 08:11:51;;;;;;;0.00;0.00;;;6.70;99.90;;;;;;5020674;28;20046;-67
2022/04/11 08:14:16;;;;;;;0.00;0.00;;;6.90;99.90;;;;;;5056772;28;20078;-65
2022/04/11 08:16:42;;;;;;;0.00;0.00;;;6.90;99.90;;;;;;5059593;28;20491;-66
2022/04/11 08:19:08;;;;;;;0.00;0.00;;;6.90;99.90;;;;;;5060089;28;20041;-73
2022/04/11 08:21:34;;;;;;;0.00;0.00;;;7.00;99.90;;;;;;5058035;28;20124;-66
2022/04/11 08:23:59;;;;;;;0.00;0.00;;;7.10;99.90;;;;;;5049226;28;20071;-66
2022/04/11 08:26:25;;;;;;;0.00;0.00;;;7.40;99.90;;;;;;5059535;28;20048;-65
2022/04/11 08:28:50;;;;;;;0.00;0.00;;;8.20;99.90;;;;;;5064971;28;20928;-65
2022/04/11 08:31:16;;;;;;;0.00;0.00;;;7.60;99.90;;;;;;5065119;28;20036;-66
2022/04/11 08:33:42;;;;;;;0.00;0.00;;;7.80;99.90;;;;;;5064710;28;20080;-65
2022/04/11 08:36:07;;;;;;;0.00;0.00;;;7.90;99.90;;;;;;5065047;28;20131;-65
2022/04/11 08:38:33;;;;;;;0.00;0.00;;;8.20;99.90;;;;;;5065387;28;20090;-65
2022/04/11 08:41:02;;;;;;;0.00;0.00;;;8.50;99.90;;;;;;5063816;28;20199;-65
2022/04/11 08:43:30;;;;;;;0.00;0.00;;;9.00;99.90;;;;;;5064982;28;20084;-65
2022/04/11 08:46:00;;;;;;;0.00;0.00;;;8.90;99.90;;;;;;5063215;28;20105;-65
2022/04/11 08:48:26;;;;;;;0.00;0.00;;;8.90;99.90;;;;;;5063188;28;20028;-65
2022/04/11 08:50:52;;;;;;;0.00;0.00;;;8.50;99.90;;;;;;5064431;28;20131;-64
2022/04/11 08:53:21;;;;;;;0.00;0.00;;;8.60;99.90;;;;;;5063741;28;20115;-65
2022/04/11 08:55:50;;;;;;;0.00;0.00;;;9.10;99.90;;;;;;5063565;28;20131;-65
2022/04/11 08:58:15;;;;;;;0.00;0.00;;;9.40;99.90;;;;;;5063508;28;20037;-65
2022/04/11 09:00:41;;;;;;;0.00;0.00;;;10.00;99.90;;;;;;5058021;28;20052;-65
2022/04/11 09:03:08;;;;;;;0.00;0.00;;;10.70;99.90;;;;;;5033302;28;20754;-65
2022/04/11 09:05:34;;;;;;;0.05;0.05;;;11.00;99.90;;;;;;5024545;28;20037;-65
2022/04/11 09:08:00;;;;;;;0.00;0.00;;;11.50;99.90;;;;;;5023256;28;20757;-65
2022/04/11 09:10:36;;;;;;;0.00;0.00;;;11.60;99.90;;;;;;5022614;28;20091;-65
2022/04/11 09:13:09;;;;;;;0.00;0.00;;;11.50;99.90;;;;;;5022957;28;20079;-64
2022/04/11 09:15:45;;;;;;;0.00;0.00;;;11.10;99.90;;;;;;5023688;28;20454;-62
2022/04/11 09:18:11;;;;;;;0.00;0.00;;;11.60;99.90;;;;;;5023378;28;20045;-64
2022/04/11 09:20:41;;;;;;;0.00;0.00;;;11.90;99.90;;;;;;5023068;28;20558;-65
2022/04/11 09:23:20;;;;;;;0.00;0.00;;;11.50;99.90;;;;;;5022011;28;20099;-65
2022/04/11 09:25:46;;;;;;;0.00;0.00;;;11.60;99.90;;;;;;5036398;28;20121;-64
2022/04/11 09:28:12;;;;;;;0.22;0.10;;;11.10;99.90;;;;;;5023510;28;20116;-64
2022/04/11 09:30:39;;;;;;;0.00;0.00;;;11.30;99.90;;;;;;5023281;28;20033;-63
2022/04/11 09:33:06;;;;;;;0.00;0.00;;;11.40;99.90;;;;;;5021999;28;20112;-62
2022/04/11 09:36:00;;;;;;;0.00;0.00;;;11.80;99.90;;;;;;5023448;28;20041;-64
2022/04/11 09:38:25;;;;;;;0.00;0.00;;;12.20;99.90;;;;;;5021288;28;20474;-64
2022/04/11 09:40:56;;;;;;;0.00;0.00;;;12.50;99.90;;;;;;5021895;28;20033;-64
2022/04/11 09:43:24;;;;;;;0.00;0.00;;;12.90;99.90;;;;;;5022996;28;20052;-64
2022/04/11 09:45:53;;;;;;;0.00;0.00;;;13.00;99.90;;;;;;5022589;28;20149;-64
2022/04/11 09:48:32;;;;;;;0.00;0.00;;;13.10;99.90;;;;;;5022989;28;20041;-64
2022/04/11 09:50:59;;;;;;;0.00;0.00;;;13.30;99.90;;;;;;5022242;28;20046;-64
2022/04/11 09:53:32;;;;;;;0.00;0.00;;;13.40;99.90;;;;;;5037517;28;20908;-64
2022/04/11 09:56:05;;;;;;;0.00;0.00;;;13.90;99.90;;;;;;5021584;28;20605;-58
2022/04/11 09:58:42;;;;;;;0.00;0.00;;;14.30;99.90;;;;;;5023123;28;20095;-60
2022/04/11 10:01:09;;;;;;;0.00;0.00;;;14.50;99.90;;;;;;5024754;28;20068;-60
2022/04/11 10:03:35;;;;;;;0.00;0.00;;;14.50;99.90;;;;;;5028500;28;20049;-60
2022/04/11 10:06:03;;;;;;;0.00;0.00;;;13.80;99.90;;;;;;5031766;28;20127;-61
2022/04/11 10:08:30;;;;;;;0.00;0.00;;;13.30;99.90;;;;;;5008701;28;1062509;-60
2022/04/11 10:10:56;;;;;;;0.00;0.00;;;14.70;99.90;;;;;;5041227;28;20283;-60
2022/04/11 10:13:23;;;;;;;0.00;0.00;;;13.00;99.90;;;;;;5042648;28;20033;-60
2022/04/11 10:15:49;;;;;;;0.00;0.00;;;13.10;99.90;;;;;;5041552;28;20041;-60
2022/04/11 10:18:26;;;;;;;0.00;0.00;;;13.20;99.90;;;;;;5042964;28;20045;-60
2022/04/11 10:21:01;;;;;;;0.00;0.00;;;12.50;99.90;;;;;;5042032;28;20056;-60
2022/04/11 10:23:53;;;;;;;0.00;0.00;;;12.80;99.90;;;;;;5041890;28;20094;-60
2022/04/11 10:26:19;;;;;;;0.00;0.00;;;13.10;99.90;;;;;;5041907;28;20049;-60
2022/04/11 10:28:47;;;;;;;0.00;0.00;;;13.50;99.90;;;;;;5040153;28;20052;-61
2022/04/11 10:31:15;;;;;;;0.00;0.00;;;14.10;99.90;;;;;;5042428;28;20056;-60
2022/04/11 10:33:55;;;;;;;0.00;0.00;;;14.40;99.90;;;;;;5042203;28;20059;-60
2022/04/11 10:36:30;;;;;;;0.00;0.00;;;13.90;99.90;;;;;;5048378;28;20045;-60
2022/04/11 10:39:16;;;;;;;0.00;0.00;;;14.00;99.90;;;;;;5048516;28;20084;-60
2022/04/11 10:41:57;;;;;;;0.00;0.00;;;14.40;99.90;;;;;;5049505;28;20078;-60
2022/04/11 10:44:45;;;;;;;0.00;0.00;;;14.70;99.90;;;;;;5046279;28;20036;-60
2022/04/11 10:47:14;;;;;;;0.00;0.00;;;14.80;99.90;;;;;;5042648;28;20106;-60
2022/04/11 10:49:48;;;;;;;0.00;0.00;;;14.60;99.90;;;;;;5041750;28;20127;-61
2022/04/11 10:52:26;;;;;;;;;;;14.90;99.90;;;;;;5042271;28;20048;-59
2022/04/11 10:54:54;;;;;;;0.00;0.00;;;14.60;99.00;;;;;;5035786;28;19921;-59
2022/04/11 10:57:37;;;;;;;0.00;0.00;;;13.70;99.60;;;;;;5051773;28;20380;-60
2022/04/11 11:00:19;;;;;;;0.30;0.10;;;13.20;99.70;;;;;;5046043;28;20041;-59
2022/04/11 11:02:52;;;;;;;0.00;0.00;;;13.10;99.90;;;;;;5032773;28;20096;-61
2022/04/11 11:05:27;;;;;;;0.10;0.00;;;13.80;99.90;;;;;;5050259;28;20528;-59
2022/04/11 11:10:48;;;;;;;0.00;0.00;;;14.10;99.90;;;;;;5061249;28;20060;-61
2022/04/11 11:13:42;;;;;;;0.00;0.00;;;14.70;99.80;;;;;;5055970;28;20040;-60
2022/04/11 11:16:07;;;;;;;0.00;0.00;;;14.50;99.10;;;;;;5061770;28;20487;-60
2022/04/11 11:18:51;;;;;;;0.00;0.00;;;15.10;99.90;;;;;;5054201;28;20044;-60
2022/04/11 11:21:33;;;;;;;0.00;0.00;;;15.50;99.90;;;;;;5046632;28;20214;-60
2022/04/11 11:24:04;;;;;;;0.00;0.00;;;15.40;99.90;;;;;;5041448;28;20060;-60
2022/04/11 11:26:52;;;;;;;0.00;0.00;;;14.90;98.40;;;;;;5041215;28;20041;-60
2022/04/11 11:29:22;;;;;;;0.10;0.10;;;15.20;99.90;;;;;;5044427;28;20084;-60
2022/04/11 11:31:50;;;;;;;0.00;0.00;;;14.90;97.30;;;;;;5040952;28;20037;-61
2022/04/11 11:34:22;;;;;;;0.00;0.00;;;14.50;97.40;;;;;;5052158;28;20210;-60
2022/04/11 11:36:48;;;;;;;0.00;0.00;;;14.60;99.50;;;;;;5047843;28;20049;-60
2022/04/11 11:39:19;;;;;;;0.00;0.00;;;14.40;98.10;;;;;;5041975;28;20063;-60
2022/04/11 11:41:46;;;;;;;0.00;0.00;;;14.10;97.70;;;;;;5040988;28;20052;-61
2022/04/11 11:44:12;;;;;;;0.10;0.10;;;14.20;99.90;;;;;;5041700;28;20045;-62
2022/04/11 11:46:55;;;;;;;0.00;0.00;;;14.20;99.90;;;;;;5040763;28;20053;-60
2022/04/11 11:49:22;;;;;;;0.00;0.00;;;14.70;99.90;;;;;;5041767;28;20578;-60
2022/04/11 11:51:48;;;;;;;0.00;0.00;;;15.30;99.90;;;;;;5044295;28;20365;-61
2022/04/11 11:54:30;;;;;;;0.00;0.00;;;15.30;98.20;;;;;;5040719;28;20064;-60
2022/04/11 11:56:56;;;;;;;0.03;0.03;;;14.60;97.70;;;;;;5041406;28;20404;-60
2022/04/11 11:59:22;;;;;;;0.17;0.10;;;14.10;98.00;;;;;;5040181;28;20063;-60
2022/04/11 12:04:36;;;;;;;0.00;0.00;;;14.10;99.40;;;;;;5026488;28;20053;-60
2022/04/11 12:07:02;;;;;;;0.00;0.00;;;14.60;99.90;;;;;;5025165;28;20523;-60
2022/04/11 12:09:39;;;;;;;0.00;0.00;;;15.00;99.80;;;;;;5055150;28;20133;-60
2022/04/11 12:12:06;;;;;;;0.00;0.00;;;15.40;99.90;;;;;;5055744;28;20044;-61
2022/04/11 12:15:11;;;;;;;0.00;0.00;;;15.40;99.90;;;;;;5054034;28;20041;-61
2022/04/11 12:17:43;;;;;;;0.00;0.00;;;15.90;99.90;;;;;;4991788;28;20481;-61
2022/04/11 12:20:15;;;;;;;0.00;0.00;;;15.40;98.90;;;;;;4976518;28;20317;-63
2022/04/11 12:22:59;;;;;;;0.00;0.00;;;15.20;99.20;;;;;;5012432;28;20651;-61
2022/04/11 12:25:27;;;;;;;0.00;0.00;;;15.30;99.90;;;;;;5044810;28;20395;-60
2022/04/11 12:28:11;;;;;;;0.00;0.00;;;15.00;99.90;;;;;;5043493;28;20049;-61
2022/04/11 12:30:37;;;;;;;0.00;0.00;;;15.10;99.90;;;;;;5044778;28;20044;-61
2022/04/11 12:33:04;;;;;;;0.00;0.00;;;15.20;99.20;;;;;;5045179;28;20087;-60
2022/04/11 12:35:29;;;;;;;0.00;0.00;;;15.00;99.70;;;;;;5045243;28;20450;-60
2022/04/11 12:37:59;;;;;;;0.00;0.00;;;15.00;99.90;;;;;;5056169;28;20044;-60
2022/04/11 12:40:44;;;;;;;0.00;0.00;;;15.10;99.90;;;;;;5064122;28;20053;-60
2022/04/11 12:43:11;;;;;;;0.00;0.00;;;15.40;99.90;;;;;;5064156;28;20048;-61
2022/04/11 12:45:37;;;;;;;0.00;0.00;;;15.20;99.90;;;;;;5064430;28;20080;-60
2022/04/11 12:48:08;;;;;;;0.00;0.00;;;15.30;99.90;;;;;;5064920;28;20083;-60
2022/04/11 12:50:35;;;;;;;0.00;0.00;;;15.40;99.90;;;;;;5051630;28;20535;-63
2022/04/11 12:53:05;;;;;;;0.00;0.00;;;15.50;99.90;;;;;;5048145;28;20055;-62
2022/04/11 12:55:32;;;;;;;0.00;0.00;;;15.00;98.90;;;;;;5050318;28;20056;-63
2022/04/11 12:58:05;;;;;;;0.00;0.00;;;15.10;99.40;;;;;;5042219;28;20107;-63
2022/04/11 13:00:33;;;;;;;0.00;0.00;;;15.10;99.90;;;;;;5042661;28;20591;-63
2022/04/11 13:02:59;;;;;;;0.00;0.00;;;15.10;99.90;;;;;;5033757;28;20068;-62
2022/04/11 13:05:25;;;;;;;0.00;0.00;;;15.30;99.90;;;;;;5047842;28;20312;-61